sensor_id;sensor_type;location;lat;lon;timestamp;P1;durP1;ratioP1;P2;durP2;ratioP2
12774;SDS011;6451;42.630;23.382;2023-05-08T00:02:03;4.90;;;3.20;;
12774;SDS011;6451;42.630;23.382;2023-05-08T00:04:29;4.70;;;3.10;;
12774;SDS011;6451;42.630;23.382;2023-05-08T00:06:58;3.90;;;3.50;;
12774;SDS011;6451;42.630;23.382;2023-05-08T00:09:24;6.97;;;3.67;;
12774;SDS011;6451;42.630;23.382;2023-05-08T00:11:51;4.47;;;3.47;;
12774;SDS011;6451;42.630;23.382;2023-05-08T00:14:18;3.37;;;2.93;;
12774;SDS011;6451;42.630;23.382;2023-05-08T00:16:45;3.53;;;3.17;;
12774;SDS011;6451;42.630;23.382;2023-05-08T00:19:12;5.30;;;3.53;;
12774;SDS011;6451;42.630;23.382;2023-05-08T00:21:39;5.23;;;3.37;;
12774;SDS011;6451;42.630;23.382;2023-05-08T00:24:07;4.47;;;3.40;;
12774;SDS011;6451;42.630;23.382;2023-05-08T00:26:34;3.60;;;3.13;;
12774;SDS011;6451;42.630;23.382;2023-05-08T00:29:01;6.20;;;3.57;;
12774;SDS011;6451;42.630;23.382;2023-05-08T00:31:28;5.00;;;3.40;;
12774;SDS011;6451;42.630;23.382;2023-05-08T00:33:55;6.80;;;3.63;;
12774;SDS011;6451;42.630;23.382;2023-05-08T00:36:22;3.77;;;3.40;;
12774;SDS011;6451;42.630;23.382;2023-05-08T00:38:50;6.60;;;3.80;;
12774;SDS011;6451;42.630;23.382;2023-05-08T00:41:18;4.57;;;3.57;;
12774;SDS011;6451;42.630;23.382;2023-05-08T00:43:46;5.53;;;3.57;;
12774;SDS011;6451;42.630;23.382;2023-05-08T00:46:13;4.00;;;3.47;;
12774;SDS011;6451;42.630;23.382;2023-05-08T00:48:41;6.47;;;3.60;;
12774;SDS011;6451;42.630;23.382;2023-05-08T00:51:10;4.27;;;3.40;;
12774;SDS011;6451;42.630;23.382;2023-05-08T00:53:38;6.67;;;3.50;;
12774;SDS011;6451;42.630;23.382;2023-05-08T00:56:08;3.77;;;3.37;;
12774;SDS011;6451;42.630;23.382;2023-05-08T00:58:37;4.67;;;3.23;;
12774;SDS011;6451;42.630;23.382;2023-05-08T01:01:05;5.17;;;3.00;;
12774;SDS011;6451;42.630;23.382;2023-05-08T01:03:32;4.10;;;3.40;;
12774;SDS011;6451;42.630;23.382;2023-05-08T01:06:01;4.00;;;3.47;;
12774;SDS011;6451;42.630;23.382;2023-05-08T01:08:30;4.80;;;3.20;;
12774;SDS011;6451;42.630;23.382;2023-05-08T01:10:59;4.10;;;3.37;;
12774;SDS011;6451;42.630;23.382;2023-05-08T01:13:35;8.03;;;3.27;;
12774;SDS011;6451;42.630;23.382;2023-05-08T01:16:16;3.93;;;3.30;;
12774;SDS011;6451;42.630;23.382;2023-05-08T01:18:52;4.13;;;3.20;;
12774;SDS011;6451;42.630;23.382;2023-05-08T01:21:28;3.57;;;3.27;;
12774;SDS011;6451;42.630;23.382;2023-05-08T01:24:25;3.40;;;3.10;;
12774;SDS011;6451;42.630;23.382;2023-05-08T01:33:07;7.37;;;3.10;;
12774;SDS011;6451;42.630;23.382;2023-05-08T01:35:52;4.93;;;3.07;;
12774;SDS011;6451;42.630;23.382;2023-05-08T01:38:29;4.30;;;3.20;;
12774;SDS011;6451;42.630;23.382;2023-05-08T01:41:02;4.83;;;3.57;;
12774;SDS011;6451;42.630;23.382;2023-05-08T01:43:47;4.73;;;3.77;;
12774;SDS011;6451;42.630;23.382;2023-05-08T01:46:18;4.10;;;3.70;;
12774;SDS011;6451;42.630;23.382;2023-05-08T01:48:52;7.90;;;3.90;;
12774;SDS011;6451;42.630;23.382;2023-05-08T01:51:24;5.37;;;4.10;;
12774;SDS011;6451;42.630;23.382;2023-05-08T01:53:55;4.27;;;3.87;;
12774;SDS011;6451;42.630;23.382;2023-05-08T01:56:27;6.07;;;5.20;;
12774;SDS011;6451;42.630;23.382;2023-05-08T01:58:56;6.13;;;5.10;;
12774;SDS011;6451;42.630;23.382;2023-05-08T02:01:25;5.93;;;4.80;;
12774;SDS011;6451;42.630;23.382;2023-05-08T02:03:55;6.43;;;5.63;;
12774;SDS011;6451;42.630;23.382;2023-05-08T02:06:25;6.37;;;5.17;;
12774;SDS011;6451;42.630;23.382;2023-05-08T02:08:55;6.40;;;5.70;;
12774;SDS011;6451;42.630;23.382;2023-05-08T02:11:24;8.93;;;5.73;;
12774;SDS011;6451;42.630;23.382;2023-05-08T02:13:54;6.50;;;5.87;;
12774;SDS011;6451;42.630;23.382;2023-05-08T02:16:29;10.07;;;6.10;;
12774;SDS011;6451;42.630;23.382;2023-05-08T02:18:59;8.13;;;6.00;;
12774;SDS011;6451;42.630;23.382;2023-05-08T02:21:27;8.53;;;5.83;;
12774;SDS011;6451;42.630;23.382;2023-05-08T02:23:55;9.20;;;5.80;;
12774;SDS011;6451;42.630;23.382;2023-05-08T02:26:23;7.43;;;5.67;;
12774;SDS011;6451;42.630;23.382;2023-05-08T02:28:51;6.73;;;6.03;;
12774;SDS011;6451;42.630;23.382;2023-05-08T02:31:19;7.10;;;6.13;;
12774;SDS011;6451;42.630;23.382;2023-05-08T02:33:48;7.20;;;5.90;;
12774;SDS011;6451;42.630;23.382;2023-05-08T02:36:18;7.80;;;6.27;;
12774;SDS011;6451;42.630;23.382;2023-05-08T02:38:46;8.87;;;6.63;;
12774;SDS011;6451;42.630;23.382;2023-05-08T02:41:16;8.27;;;6.63;;
12774;SDS011;6451;42.630;23.382;2023-05-08T02:43:46;7.20;;;6.50;;
12774;SDS011;6451;42.630;23.382;2023-05-08T02:46:15;7.13;;;6.43;;
12774;SDS011;6451;42.630;23.382;2023-05-08T02:48:46;6.87;;;6.07;;
12774;SDS011;6451;42.630;23.382;2023-05-08T02:51:22;9.63;;;6.57;;
12774;SDS011;6451;42.630;23.382;2023-05-08T02:53:53;8.03;;;6.77;;
12774;SDS011;6451;42.630;23.382;2023-05-08T02:56:28;8.20;;;6.67;;
12774;SDS011;6451;42.630;23.382;2023-05-08T02:59:00;7.60;;;6.40;;
12774;SDS011;6451;42.630;23.382;2023-05-08T03:01:41;7.83;;;6.27;;
12774;SDS011;6451;42.630;23.382;2023-05-08T03:04:16;10.47;;;6.27;;
12774;SDS011;6451;42.630;23.382;2023-05-08T03:06:51;8.50;;;6.40;;
12774;SDS011;6451;42.630;23.382;2023-05-08T03:09:23;7.57;;;6.57;;
12774;SDS011;6451;42.630;23.382;2023-05-08T03:12:00;7.67;;;6.00;;
12774;SDS011;6451;42.630;23.382;2023-05-08T03:14:33;9.97;;;6.67;;
12774;SDS011;6451;42.630;23.382;2023-05-08T03:17:05;11.23;;;6.70;;
12774;SDS011;6451;42.630;23.382;2023-05-08T03:19:35;10.27;;;6.53;;
12774;SDS011;6451;42.630;23.382;2023-05-08T03:22:06;7.33;;;6.60;;
12774;SDS011;6451;42.630;23.382;2023-05-08T03:24:34;9.73;;;6.67;;
12774;SDS011;6451;42.630;23.382;2023-05-08T03:27:03;7.20;;;6.30;;
12774;SDS011;6451;42.630;23.382;2023-05-08T03:29:32;10.80;;;6.40;;
12774;SDS011;6451;42.630;23.382;2023-05-08T03:32:01;8.13;;;6.80;;
12774;SDS011;6451;42.630;23.382;2023-05-08T03:34:29;8.33;;;6.20;;
12774;SDS011;6451;42.630;23.382;2023-05-08T03:36:57;9.40;;;6.23;;
12774;SDS011;6451;42.630;23.382;2023-05-08T03:39:26;8.37;;;6.57;;
12774;SDS011;6451;42.630;23.382;2023-05-08T03:41:53;6.43;;;5.83;;
12774;SDS011;6451;42.630;23.382;2023-05-08T03:44:21;7.87;;;5.83;;
12774;SDS011;6451;42.630;23.382;2023-05-08T03:46:49;7.63;;;6.00;;
12774;SDS011;6451;42.630;23.382;2023-05-08T03:49:19;9.53;;;6.20;;
12774;SDS011;6451;42.630;23.382;2023-05-08T03:51:49;10.47;;;5.90;;
12774;SDS011;6451;42.630;23.382;2023-05-08T03:54:16;8.07;;;5.60;;
12774;SDS011;6451;42.630;23.382;2023-05-08T03:56:44;6.87;;;6.00;;
12774;SDS011;6451;42.630;23.382;2023-05-08T03:59:13;6.07;;;5.37;;
12774;SDS011;6451;42.630;23.382;2023-05-08T04:01:44;8.57;;;5.50;;
12774;SDS011;6451;42.630;23.382;2023-05-08T04:04:15;7.23;;;5.37;;
12774;SDS011;6451;42.630;23.382;2023-05-08T04:06:45;8.27;;;6.40;;
12774;SDS011;6451;42.630;23.382;2023-05-08T04:09:16;9.37;;;5.70;;
12774;SDS011;6451;42.630;23.382;2023-05-08T04:11:49;8.63;;;5.90;;
12774;SDS011;6451;42.630;23.382;2023-05-08T04:14:23;9.13;;;6.17;;
12774;SDS011;6451;42.630;23.382;2023-05-08T04:16:54;7.67;;;6.30;;
12774;SDS011;6451;42.630;23.382;2023-05-08T04:19:26;7.43;;;6.33;;
12774;SDS011;6451;42.630;23.382;2023-05-08T04:21:56;8.23;;;6.00;;
12774;SDS011;6451;42.630;23.382;2023-05-08T04:24:27;7.80;;;6.50;;
12774;SDS011;6451;42.630;23.382;2023-05-08T04:26:57;10.33;;;6.17;;
12774;SDS011;6451;42.630;23.382;2023-05-08T04:29:26;12.03;;;6.37;;
12774;SDS011;6451;42.630;23.382;2023-05-08T04:31:54;11.33;;;6.53;;
12774;SDS011;6451;42.630;23.382;2023-05-08T04:34:22;8.20;;;5.20;;
12774;SDS011;6451;42.630;23.382;2023-05-08T04:36:49;7.90;;;5.17;;
12774;SDS011;6451;42.630;23.382;2023-05-08T04:39:17;5.80;;;5.20;;
12774;SDS011;6451;42.630;23.382;2023-05-08T04:41:44;6.43;;;5.30;;
12774;SDS011;6451;42.630;23.382;2023-05-08T04:44:14;5.83;;;5.10;;
12774;SDS011;6451;42.630;23.382;2023-05-08T04:46:41;6.60;;;5.20;;
12774;SDS011;6451;42.630;23.382;2023-05-08T04:49:08;7.30;;;5.27;;
12774;SDS011;6451;42.630;23.382;2023-05-08T04:51:34;6.63;;;4.97;;
12774;SDS011;6451;42.630;23.382;2023-05-08T04:54:01;5.30;;;4.73;;
12774;SDS011;6451;42.630;23.382;2023-05-08T04:56:30;7.67;;;5.40;;
12774;SDS011;6451;42.630;23.382;2023-05-08T04:58:57;5.83;;;4.97;;
12774;SDS011;6451;42.630;23.382;2023-05-08T05:01:25;5.40;;;4.70;;
12774;SDS011;6451;42.630;23.382;2023-05-08T05:03:52;5.60;;;5.10;;
12774;SDS011;6451;42.630;23.382;2023-05-08T05:06:19;7.13;;;5.20;;
12774;SDS011;6451;42.630;23.382;2023-05-08T05:08:45;6.00;;;4.93;;
12774;SDS011;6451;42.630;23.382;2023-05-08T05:11:12;6.30;;;4.70;;
12774;SDS011;6451;42.630;23.382;2023-05-08T05:13:39;5.67;;;4.60;;
12774;SDS011;6451;42.630;23.382;2023-05-08T05:16:06;5.20;;;4.70;;
12774;SDS011;6451;42.630;23.382;2023-05-08T05:18:34;6.07;;;4.97;;
12774;SDS011;6451;42.630;23.382;2023-05-08T05:21:01;6.30;;;5.17;;
12774;SDS011;6451;42.630;23.382;2023-05-08T05:23:28;5.30;;;4.90;;
12774;SDS011;6451;42.630;23.382;2023-05-08T05:25:56;9.73;;;5.80;;
12774;SDS011;6451;42.630;23.382;2023-05-08T05:28:23;8.17;;;6.80;;
12774;SDS011;6451;42.630;23.382;2023-05-08T05:30:50;12.37;;;9.33;;
12774;SDS011;6451;42.630;23.382;2023-05-08T05:33:17;7.88;;;5.85;;
12774;SDS011;6451;42.630;23.382;2023-05-08T05:35:45;6.43;;;5.50;;
12774;SDS011;6451;42.630;23.382;2023-05-08T05:38:13;5.93;;;4.70;;
12774;SDS011;6451;42.630;23.382;2023-05-08T05:40:40;5.80;;;5.20;;
12774;SDS011;6451;42.630;23.382;2023-05-08T05:43:07;6.50;;;5.43;;
12774;SDS011;6451;42.630;23.382;2023-05-08T05:45:34;6.93;;;5.38;;
12774;SDS011;6451;42.630;23.382;2023-05-08T05:48:01;5.78;;;5.03;;
12774;SDS011;6451;42.630;23.382;2023-05-08T05:50:28;6.93;;;5.00;;
12774;SDS011;6451;42.630;23.382;2023-05-08T05:52:57;6.65;;;4.82;;
12774;SDS011;6451;42.630;23.382;2023-05-08T05:55:23;7.25;;;5.22;;
12774;SDS011;6451;42.630;23.382;2023-05-08T05:57:50;8.43;;;6.88;;
12774;SDS011;6451;42.630;23.382;2023-05-08T06:00:18;6.30;;;5.10;;
12774;SDS011;6451;42.630;23.382;2023-05-08T06:02:45;8.77;;;4.90;;
12774;SDS011;6451;42.630;23.382;2023-05-08T06:05:12;7.88;;;4.75;;
12774;SDS011;6451;42.630;23.382;2023-05-08T06:07:39;6.25;;;4.70;;
12774;SDS011;6451;42.630;23.382;2023-05-08T06:10:08;6.72;;;5.18;;
12774;SDS011;6451;42.630;23.382;2023-05-08T06:12:35;7.13;;;4.80;;
12774;SDS011;6451;42.630;23.382;2023-05-08T06:15:03;6.07;;;4.70;;
12774;SDS011;6451;42.630;23.382;2023-05-08T06:17:30;9.07;;;4.30;;
12774;SDS011;6451;42.630;23.382;2023-05-08T06:19:57;7.72;;;4.30;;
12774;SDS011;6451;42.630;23.382;2023-05-08T06:22:24;5.40;;;3.90;;
12774;SDS011;6451;42.630;23.382;2023-05-08T06:24:51;6.57;;;3.97;;
12774;SDS011;6451;42.630;23.382;2023-05-08T06:27:20;9.13;;;3.60;;
12774;SDS011;6451;42.630;23.382;2023-05-08T06:29:47;4.68;;;3.97;;
12774;SDS011;6451;42.630;23.382;2023-05-08T06:32:17;7.28;;;3.97;;
12774;SDS011;6451;42.630;23.382;2023-05-08T06:34:44;4.88;;;4.38;;
12774;SDS011;6451;42.630;23.382;2023-05-08T06:37:11;6.25;;;4.60;;
12774;SDS011;6451;42.630;23.382;2023-05-08T06:39:38;5.75;;;4.28;;
12774;SDS011;6451;42.630;23.382;2023-05-08T06:42:05;6.85;;;4.10;;
12774;SDS011;6451;42.630;23.382;2023-05-08T06:44:33;7.40;;;4.07;;
12774;SDS011;6451;42.630;23.382;2023-05-08T06:47:00;6.45;;;4.43;;
12774;SDS011;6451;42.630;23.382;2023-05-08T06:49:27;7.07;;;4.95;;
12774;SDS011;6451;42.630;23.382;2023-05-08T06:51:53;8.15;;;4.93;;
12774;SDS011;6451;42.630;23.382;2023-05-08T06:54:21;7.75;;;4.30;;
12774;SDS011;6451;42.630;23.382;2023-05-08T06:56:48;20.15;;;5.35;;
12774;SDS011;6451;42.630;23.382;2023-05-08T06:59:15;5.53;;;4.18;;
12774;SDS011;6451;42.630;23.382;2023-05-08T07:01:43;8.40;;;4.35;;
12774;SDS011;6451;42.630;23.382;2023-05-08T07:04:10;6.22;;;4.78;;
12774;SDS011;6451;42.630;23.382;2023-05-08T07:06:38;13.52;;;4.88;;
12774;SDS011;6451;42.630;23.382;2023-05-08T07:09:04;12.65;;;4.70;;
12774;SDS011;6451;42.630;23.382;2023-05-08T07:11:31;12.13;;;4.93;;
12774;SDS011;6451;42.630;23.382;2023-05-08T07:13:58;10.10;;;4.70;;
12774;SDS011;6451;42.630;23.382;2023-05-08T07:16:25;11.70;;;4.93;;
12774;SDS011;6451;42.630;23.382;2023-05-08T07:18:53;7.53;;;4.82;;
12774;SDS011;6451;42.630;23.382;2023-05-08T07:21:20;9.38;;;4.82;;
12774;SDS011;6451;42.630;23.382;2023-05-08T07:23:47;12.23;;;5.57;;
12774;SDS011;6451;42.630;23.382;2023-05-08T07:26:15;6.68;;;5.00;;
12774;SDS011;6451;42.630;23.382;2023-05-08T07:28:43;9.35;;;5.45;;
12774;SDS011;6451;42.630;23.382;2023-05-08T07:31:10;8.98;;;5.38;;
12774;SDS011;6451;42.630;23.382;2023-05-08T07:33:37;9.38;;;5.90;;
12774;SDS011;6451;42.630;23.382;2023-05-08T07:36:06;10.40;;;5.78;;
12774;SDS011;6451;42.630;23.382;2023-05-08T07:38:33;6.88;;;5.93;;
12774;SDS011;6451;42.630;23.382;2023-05-08T07:41:00;10.90;;;6.10;;
12774;SDS011;6451;42.630;23.382;2023-05-08T07:43:29;8.95;;;6.10;;
12774;SDS011;6451;42.630;23.382;2023-05-08T07:45:56;8.90;;;5.88;;
12774;SDS011;6451;42.630;23.382;2023-05-08T07:48:25;10.40;;;6.53;;
12774;SDS011;6451;42.630;23.382;2023-05-08T07:50:52;11.25;;;6.50;;
12774;SDS011;6451;42.630;23.382;2023-05-08T07:53:20;9.73;;;6.63;;
12774;SDS011;6451;42.630;23.382;2023-05-08T07:55:47;8.55;;;5.80;;
12774;SDS011;6451;42.630;23.382;2023-05-08T07:58:14;8.00;;;5.70;;
12774;SDS011;6451;42.630;23.382;2023-05-08T08:00:41;7.32;;;6.03;;
12774;SDS011;6451;42.630;23.382;2023-05-08T08:03:08;12.50;;;6.63;;
12774;SDS011;6451;42.630;23.382;2023-05-08T08:05:36;6.82;;;6.15;;
12774;SDS011;6451;42.630;23.382;2023-05-08T08:08:03;9.90;;;6.70;;
12774;SDS011;6451;42.630;23.382;2023-05-08T08:10:33;11.32;;;6.60;;
12774;SDS011;6451;42.630;23.382;2023-05-08T08:13:00;11.18;;;6.75;;
12774;SDS011;6451;42.630;23.382;2023-05-08T08:15:27;7.90;;;6.40;;
12774;SDS011;6451;42.630;23.382;2023-05-08T08:17:54;12.30;;;6.97;;
12774;SDS011;6451;42.630;23.382;2023-05-08T08:20:20;10.95;;;6.05;;
12774;SDS011;6451;42.630;23.382;2023-05-08T08:22:47;10.38;;;6.78;;
12774;SDS011;6451;42.630;23.382;2023-05-08T08:25:14;10.88;;;6.15;;
12774;SDS011;6451;42.630;23.382;2023-05-08T08:27:43;10.15;;;6.05;;
12774;SDS011;6451;42.630;23.382;2023-05-08T08:30:10;9.77;;;6.70;;
12774;SDS011;6451;42.630;23.382;2023-05-08T08:32:37;11.05;;;7.03;;
12774;SDS011;6451;42.630;23.382;2023-05-08T08:35:04;8.23;;;6.80;;
12774;SDS011;6451;42.630;23.382;2023-05-08T08:37:31;10.30;;;6.90;;
12774;SDS011;6451;42.630;23.382;2023-05-08T08:39:59;11.60;;;6.50;;
12774;SDS011;6451;42.630;23.382;2023-05-08T08:42:26;8.63;;;6.18;;
12774;SDS011;6451;42.630;23.382;2023-05-08T08:44:55;9.80;;;5.40;;
12774;SDS011;6451;42.630;23.382;2023-05-08T08:47:23;10.52;;;5.63;;
12774;SDS011;6451;42.630;23.382;2023-05-08T08:49:53;6.32;;;5.50;;
12774;SDS011;6451;42.630;23.382;2023-05-08T08:52:26;9.18;;;5.90;;
12774;SDS011;6451;42.630;23.382;2023-05-08T08:54:57;6.72;;;5.60;;
12774;SDS011;6451;42.630;23.382;2023-05-08T08:57:30;8.88;;;5.45;;
12774;SDS011;6451;42.630;23.382;2023-05-08T09:00:00;6.60;;;5.32;;
12774;SDS011;6451;42.630;23.382;2023-05-08T09:02:29;8.07;;;5.43;;
12774;SDS011;6451;42.630;23.382;2023-05-08T09:04:57;9.60;;;5.63;;
12774;SDS011;6451;42.630;23.382;2023-05-08T09:07:24;11.20;;;5.53;;
12774;SDS011;6451;42.630;23.382;2023-05-08T09:09:54;9.77;;;5.75;;
12774;SDS011;6451;42.630;23.382;2023-05-08T09:12:21;9.30;;;5.25;;
12774;SDS011;6451;42.630;23.382;2023-05-08T09:14:49;11.07;;;5.32;;
12774;SDS011;6451;42.630;23.382;2023-05-08T09:17:18;8.77;;;5.25;;
12774;SDS011;6451;42.630;23.382;2023-05-08T09:19:46;8.98;;;4.90;;
12774;SDS011;6451;42.630;23.382;2023-05-08T09:22:14;8.88;;;5.00;;
12774;SDS011;6451;42.630;23.382;2023-05-08T09:24:55;5.78;;;5.15;;
12774;SDS011;6451;42.630;23.382;2023-05-08T09:27:23;9.95;;;5.07;;
12774;SDS011;6451;42.630;23.382;2023-05-08T09:29:57;9.18;;;5.13;;
12774;SDS011;6451;42.630;23.382;2023-05-08T09:32:27;7.22;;;5.10;;
12774;SDS011;6451;42.630;23.382;2023-05-08T09:34:54;10.05;;;5.22;;
12774;SDS011;6451;42.630;23.382;2023-05-08T09:37:21;9.02;;;5.28;;
12774;SDS011;6451;42.630;23.382;2023-05-08T09:39:48;9.45;;;5.65;;
12774;SDS011;6451;42.630;23.382;2023-05-08T09:42:15;5.65;;;5.07;;
12774;SDS011;6451;42.630;23.382;2023-05-08T09:44:42;9.15;;;4.82;;
12774;SDS011;6451;42.630;23.382;2023-05-08T09:47:12;7.93;;;4.95;;
12774;SDS011;6451;42.630;23.382;2023-05-08T09:49:54;5.78;;;4.78;;
12774;SDS011;6451;42.630;23.382;2023-05-08T09:52:22;7.13;;;5.05;;
12774;SDS011;6451;42.630;23.382;2023-05-08T09:54:55;13.55;;;5.50;;
12774;SDS011;6451;42.630;23.382;2023-05-08T09:57:23;5.68;;;4.57;;
12774;SDS011;6451;42.630;23.382;2023-05-08T09:59:50;7.72;;;5.25;;
12774;SDS011;6451;42.630;23.382;2023-05-08T10:02:17;8.48;;;4.95;;
12774;SDS011;6451;42.630;23.382;2023-05-08T10:04:46;11.52;;;5.40;;
12774;SDS011;6451;42.630;23.382;2023-05-08T10:07:14;12.48;;;5.15;;
12774;SDS011;6451;42.630;23.382;2023-05-08T10:09:48;7.43;;;4.57;;
12774;SDS011;6451;42.630;23.382;2023-05-08T10:12:25;10.32;;;5.18;;
12774;SDS011;6451;42.630;23.382;2023-05-08T10:14:52;9.70;;;5.53;;
12774;SDS011;6451;42.630;23.382;2023-05-08T10:17:19;5.63;;;4.78;;
12774;SDS011;6451;42.630;23.382;2023-05-08T10:19:53;9.50;;;5.65;;
12774;SDS011;6451;42.630;23.382;2023-05-08T10:22:25;18.52;;;16.38;;
12774;SDS011;6451;42.630;23.382;2023-05-08T10:24:55;15.57;;;8.93;;
12774;SDS011;6451;42.630;23.382;2023-05-08T10:27:27;12.10;;;5.57;;
12774;SDS011;6451;42.630;23.382;2023-05-08T10:30:03;10.98;;;5.30;;
12774;SDS011;6451;42.630;23.382;2023-05-08T10:32:34;10.05;;;5.20;;
12774;SDS011;6451;42.630;23.382;2023-05-08T10:35:05;12.48;;;7.72;;
12774;SDS011;6451;42.630;23.382;2023-05-08T10:37:36;6.35;;;5.40;;
12774;SDS011;6451;42.630;23.382;2023-05-08T10:40:06;8.38;;;5.22;;
12774;SDS011;6451;42.630;23.382;2023-05-08T10:42:37;10.60;;;5.55;;
12774;SDS011;6451;42.630;23.382;2023-05-08T10:45:05;8.65;;;5.13;;
12774;SDS011;6451;42.630;23.382;2023-05-08T10:47:47;6.65;;;4.90;;
12774;SDS011;6451;42.630;23.382;2023-05-08T10:50:32;5.68;;;5.00;;
12774;SDS011;6451;42.630;23.382;2023-05-08T10:53:10;6.63;;;5.07;;
12774;SDS011;6451;42.630;23.382;2023-05-08T10:55:44;7.13;;;5.40;;
12774;SDS011;6451;42.630;23.382;2023-05-08T10:58:14;7.10;;;4.70;;
12774;SDS011;6451;42.630;23.382;2023-05-08T11:03:46;6.65;;;4.97;;
12774;SDS011;6451;42.630;23.382;2023-05-08T11:06:15;7.22;;;5.10;;
12774;SDS011;6451;42.630;23.382;2023-05-08T11:08:48;7.28;;;5.15;;
12774;SDS011;6451;42.630;23.382;2023-05-08T11:11:24;6.10;;;5.03;;
12774;SDS011;6451;42.630;23.382;2023-05-08T11:13:54;7.75;;;5.05;;
12774;SDS011;6451;42.630;23.382;2023-05-08T11:19:29;10.25;;;5.22;;
12774;SDS011;6451;42.630;23.382;2023-05-08T11:24:55;7.97;;;5.20;;
12774;SDS011;6451;42.630;23.382;2023-05-08T11:27:34;7.25;;;5.22;;
12774;SDS011;6451;42.630;23.382;2023-05-08T11:35:46;6.68;;;5.35;;
12774;SDS011;6451;42.630;23.382;2023-05-08T11:38:15;7.80;;;5.22;;
12774;SDS011;6451;42.630;23.382;2023-05-08T11:40:45;6.47;;;5.50;;
12774;SDS011;6451;42.630;23.382;2023-05-08T11:43:37;7.70;;;5.43;;
12774;SDS011;6451;42.630;23.382;2023-05-08T11:46:15;6.93;;;5.65;;
12774;SDS011;6451;42.630;23.382;2023-05-08T11:48:43;5.50;;;5.00;;
12774;SDS011;6451;42.630;23.382;2023-05-08T11:51:10;9.45;;;5.03;;
12774;SDS011;6451;42.630;23.382;2023-05-08T11:53:37;11.82;;;5.30;;
12774;SDS011;6451;42.630;23.382;2023-05-08T11:56:06;7.72;;;4.97;;
12774;SDS011;6451;42.630;23.382;2023-05-08T11:58:33;5.30;;;4.90;;
12774;SDS011;6451;42.630;23.382;2023-05-08T12:01:01;6.03;;;4.95;;
12774;SDS011;6451;42.630;23.382;2023-05-08T12:03:28;5.88;;;5.30;;
12774;SDS011;6451;42.630;23.382;2023-05-08T12:05:55;7.22;;;5.15;;
12774;SDS011;6451;42.630;23.382;2023-05-08T12:08:24;7.05;;;4.95;;
12774;SDS011;6451;42.630;23.382;2023-05-08T12:10:52;6.70;;;4.97;;
12774;SDS011;6451;42.630;23.382;2023-05-08T12:13:22;6.05;;;4.85;;
12774;SDS011;6451;42.630;23.382;2023-05-08T12:15:50;6.28;;;4.70;;
12774;SDS011;6451;42.630;23.382;2023-05-08T12:18:19;6.55;;;4.80;;
12774;SDS011;6451;42.630;23.382;2023-05-08T12:20:49;5.38;;;4.82;;
12774;SDS011;6451;42.630;23.382;2023-05-08T12:23:17;5.28;;;4.35;;
12774;SDS011;6451;42.630;23.382;2023-05-08T12:25:44;7.20;;;4.60;;
12774;SDS011;6451;42.630;23.382;2023-05-08T12:28:11;5.43;;;4.72;;
12774;SDS011;6451;42.630;23.382;2023-05-08T12:30:40;5.07;;;4.53;;
12774;SDS011;6451;42.630;23.382;2023-05-08T12:33:07;6.82;;;4.50;;
12774;SDS011;6451;42.630;23.382;2023-05-08T12:35:36;7.32;;;4.80;;
12774;SDS011;6451;42.630;23.382;2023-05-08T12:38:05;5.03;;;4.38;;
12774;SDS011;6451;42.630;23.382;2023-05-08T12:40:33;11.25;;;5.88;;
12774;SDS011;6451;42.630;23.382;2023-05-08T12:43:07;5.85;;;4.22;;
12774;SDS011;6451;42.630;23.382;2023-05-08T12:45:35;8.02;;;4.95;;
12774;SDS011;6451;42.630;23.382;2023-05-08T12:48:05;8.13;;;4.10;;
12774;SDS011;6451;42.630;23.382;2023-05-08T12:50:33;6.35;;;4.75;;
12774;SDS011;6451;42.630;23.382;2023-05-08T12:53:01;10.40;;;9.25;;
12774;SDS011;6451;42.630;23.382;2023-05-08T12:55:30;5.85;;;4.50;;
12774;SDS011;6451;42.630;23.382;2023-05-08T12:57:58;6.38;;;5.78;;
12774;SDS011;6451;42.630;23.382;2023-05-08T13:00:37;5.63;;;5.03;;
12774;SDS011;6451;42.630;23.382;2023-05-08T13:03:07;6.10;;;5.40;;
12774;SDS011;6451;42.630;23.382;2023-05-08T13:05:35;7.10;;;5.00;;
12774;SDS011;6451;42.630;23.382;2023-05-08T13:08:06;8.43;;;4.85;;
12774;SDS011;6451;42.630;23.382;2023-05-08T13:10:47;5.72;;;4.55;;
12774;SDS011;6451;42.630;23.382;2023-05-08T13:13:16;8.20;;;5.25;;
12774;SDS011;6451;42.630;23.382;2023-05-08T13:15:44;5.20;;;4.32;;
12774;SDS011;6451;42.630;23.382;2023-05-08T13:18:13;4.70;;;4.20;;
12774;SDS011;6451;42.630;23.382;2023-05-08T13:20:40;6.03;;;4.03;;
12774;SDS011;6451;42.630;23.382;2023-05-08T13:23:08;6.10;;;4.00;;
12774;SDS011;6451;42.630;23.382;2023-05-08T13:25:36;4.63;;;3.97;;
12774;SDS011;6451;42.630;23.382;2023-05-08T13:28:04;6.28;;;3.92;;
12774;SDS011;6451;42.630;23.382;2023-05-08T13:30:31;7.07;;;4.57;;
12774;SDS011;6451;42.630;23.382;2023-05-08T13:32:58;4.60;;;4.20;;
12774;SDS011;6451;42.630;23.382;2023-05-08T13:35:27;4.90;;;4.40;;
12774;SDS011;6451;42.630;23.382;2023-05-08T13:37:54;5.35;;;4.30;;
12774;SDS011;6451;42.630;23.382;2023-05-08T13:40:21;5.03;;;3.80;;
12774;SDS011;6451;42.630;23.382;2023-05-08T13:42:48;4.32;;;3.90;;
12774;SDS011;6451;42.630;23.382;2023-05-08T13:45:15;5.07;;;4.10;;
12774;SDS011;6451;42.630;23.382;2023-05-08T13:47:43;7.28;;;3.95;;
12774;SDS011;6451;42.630;23.382;2023-05-08T13:50:11;4.80;;;3.95;;
12774;SDS011;6451;42.630;23.382;2023-05-08T13:52:41;5.22;;;4.10;;
12774;SDS011;6451;42.630;23.382;2023-05-08T13:55:09;7.93;;;4.35;;
12774;SDS011;6451;42.630;23.382;2023-05-08T13:57:37;4.95;;;4.50;;
12774;SDS011;6451;42.630;23.382;2023-05-08T14:00:04;4.75;;;4.28;;
12774;SDS011;6451;42.630;23.382;2023-05-08T14:02:32;9.15;;;5.50;;
12774;SDS011;6451;42.630;23.382;2023-05-08T14:04:59;6.13;;;5.13;;
12774;SDS011;6451;42.630;23.382;2023-05-08T14:07:27;5.55;;;4.88;;
12774;SDS011;6451;42.630;23.382;2023-05-08T14:09:56;5.20;;;4.70;;
12774;SDS011;6451;42.630;23.382;2023-05-08T14:12:23;7.45;;;5.38;;
12774;SDS011;6451;42.630;23.382;2023-05-08T14:14:50;6.85;;;5.57;;
12774;SDS011;6451;42.630;23.382;2023-05-08T14:17:16;5.70;;;5.13;;
12774;SDS011;6451;42.630;23.382;2023-05-08T14:19:43;5.93;;;5.32;;
12774;SDS011;6451;42.630;23.382;2023-05-08T14:22:11;6.45;;;5.07;;
12774;SDS011;6451;42.630;23.382;2023-05-08T14:24:38;8.02;;;6.68;;
12774;SDS011;6451;42.630;23.382;2023-05-08T14:27:06;7.00;;;5.10;;
12774;SDS011;6451;42.630;23.382;2023-05-08T14:29:33;6.57;;;5.85;;
12774;SDS011;6451;42.630;23.382;2023-05-08T14:32:00;6.93;;;5.10;;
12774;SDS011;6451;42.630;23.382;2023-05-08T14:34:27;8.05;;;5.07;;
12774;SDS011;6451;42.630;23.382;2023-05-08T14:36:54;5.70;;;4.82;;
12774;SDS011;6451;42.630;23.382;2023-05-08T14:39:21;5.10;;;4.60;;
12774;SDS011;6451;42.630;23.382;2023-05-08T14:41:48;4.97;;;4.25;;
12774;SDS011;6451;42.630;23.382;2023-05-08T14:44:18;5.13;;;4.63;;
12774;SDS011;6451;42.630;23.382;2023-05-08T14:46:44;6.32;;;5.03;;
12774;SDS011;6451;42.630;23.382;2023-05-08T14:49:11;5.50;;;4.55;;
12774;SDS011;6451;42.630;23.382;2023-05-08T14:51:38;5.03;;;4.63;;
12774;SDS011;6451;42.630;23.382;2023-05-08T14:54:05;6.10;;;4.55;;
12774;SDS011;6451;42.630;23.382;2023-05-08T14:56:32;6.70;;;4.95;;
12774;SDS011;6451;42.630;23.382;2023-05-08T14:58:59;4.88;;;3.95;;
12774;SDS011;6451;42.630;23.382;2023-05-08T15:01:28;3.20;;;2.90;;
12774;SDS011;6451;42.630;23.382;2023-05-08T15:03:55;6.90;;;3.00;;
12774;SDS011;6451;42.630;23.382;2023-05-08T15:06:22;4.15;;;2.70;;
12774;SDS011;6451;42.630;23.382;2023-05-08T15:08:53;4.50;;;3.00;;
12774;SDS011;6451;42.630;23.382;2023-05-08T15:11:20;3.60;;;3.13;;
12774;SDS011;6451;42.630;23.382;2023-05-08T15:13:48;3.75;;;3.45;;
12774;SDS011;6451;42.630;23.382;2023-05-08T15:16:15;3.30;;;3.00;;
12774;SDS011;6451;42.630;23.382;2023-05-08T15:18:43;5.32;;;3.20;;